Time;durP1;ratioP1;P1;durP2;ratioP2;P2;SDS_P1;SDS_P2;PMS_P1;PMS_P2;Temp;Humidity;BMP_temperature;BMP_pressure;BME280_temperature;BME280_humidity;BME280_pressure;Samples;Min_cycle;Max_cycle;Signal;HPM_P1;HPM_P2
2023/05/28 00:02:16;;;;;;;19.80;15.43;;;22.70;85.10;;;;;;4956371;28;20035;-63
2023/05/28 00:04:42;;;;;;;17.17;14.43;;;22.70;85.40;;;;;;4956048;28;20101;-63
2023/05/28 00:07:10;;;;;;;17.53;15.43;;;22.70;85.70;;;;;;4955949;29;20492;-63
2023/05/28 00:09:41;;;;;;;20.60;16.50;;;22.60;86.80;;;;;;4956884;28;20271;-64
2023/05/28 00:12:07;;;;;;;22.08;18.15;;;22.60;87.00;;;;;;4956337;28;20027;-63
2023/05/28 00:14:34;;;;;;;24.45;17.42;;;22.50;87.70;;;;;;4956118;28;20110;-63
2023/05/28 00:17:00;;;;;;;23.08;16.25;;;22.50;88.20;;;;;;4954557;29;20035;-64
2023/05/28 00:19:26;;;;;;;21.05;16.42;;;22.40;88.70;;;;;;4956007;28;20031;-63
2023/05/28 00:21:51;;;;;;;25.37;17.47;;;22.40;89.10;;;;;;4956139;28;20035;-63
2023/05/28 00:24:17;;;;;;;22.33;17.33;;;22.40;88.50;;;;;;4956166;28;20041;-64
2023/05/28 00:26:43;;;;;;;19.57;16.90;;;22.40;88.20;;;;;;4955713;28;20039;-63
2023/05/28 00:29:09;;;;;;;21.17;18.45;;;22.40;88.60;;;;;;4956225;28;20023;-64
2023/05/28 00:31:35;;;;;;;21.67;17.88;;;22.30;90.10;;;;;;4954466;29;20050;-63
2023/05/28 00:34:01;;;;;;;20.43;17.87;;;22.30;90.30;;;;;;4955878;28;20027;-63
2023/05/28 00:36:27;;;;;;;19.27;17.15;;;22.30;90.10;;;;;;4954010;28;20039;-64
2023/05/28 00:38:53;;;;;;;24.73;18.13;;;22.30;90.60;;;;;;4954669;28;20042;-63
2023/05/28 00:41:23;;;;;;;23.23;17.73;;;22.20;90.80;;;;;;4954458;29;20023;-64
2023/05/28 00:43:49;;;;;;;20.80;18.40;;;22.30;91.00;;;;;;4947265;29;20035;-64
2023/05/28 00:46:23;;;;;;;29.83;20.08;;;22.20;91.10;;;;;;4954041;29;20031;-63
2023/05/28 00:48:50;;;;;;;20.75;18.48;;;22.20;91.10;;;;;;4955383;28;20125;-63
2023/05/28 00:51:17;;;;;;;23.63;17.98;;;22.20;91.10;;;;;;4954865;28;20023;-63
2023/05/28 00:53:43;;;;;;;19.75;17.60;;;22.20;91.00;;;;;;4953992;28;20501;-64
2023/05/28 00:56:11;;;;;;;23.58;19.60;;;22.20;90.90;;;;;;4954412;28;20130;-63
2023/05/28 00:58:43;;;;;;;20.88;18.30;;;22.20;90.70;;;;;;4954160;29;20388;-64
2023/05/28 01:01:09;;;;;;;24.13;19.17;;;22.20;90.60;;;;;;4954152;29;20038;-64
2023/05/28 01:03:39;;;;;;;23.48;20.02;;;22.20;90.80;;;;;;4954172;28;20125;-64
2023/05/28 01:06:12;;;;;;;21.70;18.27;;;22.20;90.60;;;;;;4953136;28;20523;-64
2023/05/28 01:08:40;;;;;;;21.15;17.27;;;22.20;89.80;;;;;;4953137;28;20396;-64
2023/05/28 01:11:10;;;;;;;21.88;17.95;;;22.20;90.20;;;;;;4953466;28;20532;-64
2023/05/28 01:13:37;;;;;;;22.98;18.02;;;22.20;89.70;;;;;;4952688;29;20031;-64
2023/05/28 01:16:03;;;;;;;21.52;17.73;;;22.20;90.00;;;;;;4953207;29;20247;-64
2023/05/28 01:18:31;;;;;;;20.38;17.75;;;22.20;90.20;;;;;;4953515;28;20547;-64
2023/05/28 01:21:01;;;;;;;25.17;18.90;;;22.20;90.10;;;;;;4954967;28;20035;-64
2023/05/28 01:23:28;;;;;;;27.88;18.73;;;22.20;90.00;;;;;;4954067;28;20033;-63
2023/05/28 01:25:59;;;;;;;23.52;19.88;;;22.20;90.20;;;;;;4953954;28;20047;-64
2023/05/28 01:28:25;;;;;;;21.05;18.52;;;22.20;90.30;;;;;;4953757;28;20031;-64
2023/05/28 01:30:52;;;;;;;24.65;18.13;;;22.20;90.40;;;;;;4955080;28;20027;-63
2023/05/28 01:33:21;;;;;;;21.10;17.63;;;22.20;90.50;;;;;;4953699;29;20035;-64
2023/05/28 01:35:47;;;;;;;22.88;18.92;;;22.10;90.30;;;;;;4953837;29;20047;-64
2023/05/28 01:38:15;;;;;;;22.30;18.98;;;22.10;90.70;;;;;;4953716;29;20065;-64
2023/05/28 01:40:46;;;;;;;24.60;18.90;;;22.10;91.00;;;;;;4953058;29;20503;-63
2023/05/28 01:43:13;;;;;;;25.25;19.83;;;22.10;91.00;;;;;;4954693;28;20023;-64
2023/05/28 01:45:39;;;;;;;;;;;22.10;91.50;;;;;;4953356;29;20028;-64
2023/05/28 01:48:06;;;;;;;22.23;19.42;;;22.10;90.60;;;;;;4944146;28;19918;-64
2023/05/28 01:50:32;;;;;;;24.60;20.00;;;22.00;91.50;;;;;;4952257;28;20034;-64
2023/05/28 01:52:59;;;;;;;22.83;19.98;;;22.00;91.60;;;;;;4952820;28;20684;-64
2023/05/28 01:55:26;;;;;;;22.85;20.45;;;22.00;91.60;;;;;;4952692;28;20118;-64
2023/05/28 01:57:51;;;;;;;26.85;21.25;;;22.00;91.90;;;;;;4952803;28;20035;-63
2023/05/28 02:00:18;;;;;;;25.67;20.20;;;22.00;92.10;;;;;;4950570;28;20061;-64
2023/05/28 02:02:44;;;;;;;30.20;20.85;;;22.00;92.20;;;;;;4952861;29;20031;-64
2023/05/28 02:05:13;;;;;;;24.45;21.58;;;22.00;92.00;;;;;;4952482;29;20419;-64
2023/05/28 02:07:39;;;;;;;28.83;21.83;;;22.00;92.10;;;;;;4953567;28;20039;-63
2023/05/28 02:10:06;;;;;;;22.20;19.20;;;22.00;92.30;;;;;;4954623;28;20231;-63
2023/05/28 02:12:32;;;;;;;24.95;20.85;;;21.90;92.40;;;;;;4952141;29;20468;-64
2023/05/28 02:14:58;;;;;;;22.73;20.30;;;21.90;92.60;;;;;;4953585;28;20047;-64
2023/05/28 02:17:24;;;;;;;23.17;20.83;;;21.90;92.70;;;;;;4952417;28;20995;-64
2023/05/28 02:19:50;;;;;;;21.30;18.98;;;21.90;92.80;;;;;;4952252;29;20385;-64
2023/05/28 02:22:16;;;;;;;22.98;20.40;;;21.90;92.80;;;;;;4965422;28;20035;-64
2023/05/28 02:24:42;;;;;;;22.77;19.93;;;21.90;92.80;;;;;;4968101;28;20035;-64
2023/05/28 02:27:09;;;;;;;28.10;20.33;;;21.90;92.90;;;;;;4953215;28;20469;-64
2023/05/28 02:29:35;;;;;;;26.95;20.63;;;21.90;92.70;;;;;;4953519;28;20058;-64
2023/05/28 02:32:03;;;;;;;27.57;20.53;;;21.90;92.80;;;;;;4953414;28;20114;-65
2023/05/28 02:34:29;;;;;;;26.08;20.25;;;21.80;92.90;;;;;;4952451;28;20290;-64
2023/05/28 02:36:56;;;;;;;29.37;20.47;;;21.90;93.30;;;;;;4951800;29;20046;-64
2023/05/28 02:39:25;;;;;;;23.15;20.55;;;21.90;93.10;;;;;;4951862;28;20326;-64
2023/05/28 02:41:50;;;;;;;27.70;21.67;;;21.90;93.10;;;;;;4952308;29;20043;-64
2023/05/28 02:44:16;;;;;;;27.27;21.83;;;21.90;93.20;;;;;;4952032;28;20039;-64
2023/05/28 02:46:42;;;;;;;23.85;20.75;;;21.80;93.30;;;;;;4952192;28;20480;-64
2023/05/28 02:49:08;;;;;;;23.03;20.13;;;21.70;93.20;;;;;;4951925;29;20023;-64
2023/05/28 02:51:34;;;;;;;24.95;20.75;;;21.80;93.30;;;;;;4952144;28;20055;-64
2023/05/28 02:54:13;;;;;;;24.42;20.80;;;21.80;93.30;;;;;;4951838;29;20027;-64
2023/05/28 02:56:40;;;;;;;23.55;20.92;;;21.70;93.50;;;;;;4951802;28;20129;-64
2023/05/28 02:59:06;;;;;;;26.83;22.08;;;21.70;93.70;;;;;;4952883;28;20106;-64
2023/05/28 03:01:31;;;;;;;22.23;19.85;;;21.70;93.70;;;;;;4951383;28;20489;-63
2023/05/28 03:03:58;;;;;;;24.80;20.00;;;21.70;93.60;;;;;;4961206;28;20068;-64
2023/05/28 03:06:24;;;;;;;22.55;19.40;;;21.70;93.40;;;;;;4953320;28;20123;-64
2023/05/28 03:08:53;;;;;;;26.27;20.15;;;21.70;93.50;;;;;;4951530;28;20055;-64
2023/05/28 03:11:19;;;;;;;22.97;20.47;;;21.60;94.00;;;;;;4951894;28;20035;-64
2023/05/28 03:13:45;;;;;;;22.17;19.88;;;21.60;93.80;;;;;;4952266;29;20035;-64
2023/05/28 03:16:11;;;;;;;22.25;19.50;;;21.60;93.90;;;;;;4952333;28;20023;-64
2023/05/28 03:18:37;;;;;;;21.98;18.05;;;21.60;94.00;;;;;;4952200;29;20401;-64
2023/05/28 03:21:04;;;;;;;24.50;15.57;;;21.50;93.90;;;;;;4952155;28;20512;-64
2023/05/28 03:23:30;;;;;;;16.98;14.93;;;21.60;93.80;;;;;;4952186;29;20151;-63
2023/05/28 03:26:18;;;;;;;19.08;15.05;;;21.50;93.70;;;;;;4953238;28;20038;-64
2023/05/28 03:28:44;;;;;;;17.38;14.38;;;21.50;93.50;;;;;;4952042;29;20039;-64
2023/05/28 03:31:30;;;;;;;15.35;13.65;;;21.40;93.50;;;;;;4952740;28;20046;-64
2023/05/28 03:33:58;;;;;;;17.95;13.57;;;21.30;94.30;;;;;;4952036;28;20028;-64
2023/05/28 03:36:26;;;;;;;19.10;13.50;;;21.30;94.20;;;;;;4952169;28;20163;-64
2023/05/28 03:38:52;;;;;;;16.13;13.63;;;21.30;94.10;;;;;;4951922;28;20563;-64
2023/05/28 03:41:18;;;;;;;16.85;13.65;;;21.30;94.00;;;;;;4952014;28;20031;-64
2023/05/28 03:43:45;;;;;;;18.13;13.00;;;21.30;94.00;;;;;;4951664;29;20047;-64
2023/05/28 03:46:11;;;;;;;16.55;13.07;;;21.30;94.00;;;;;;4952467;28;20042;-64
2023/05/28 03:48:37;;;;;;;16.30;12.98;;;21.40;93.90;;;;;;4951475;28;20024;-64
2023/05/28 03:51:04;;;;;;;21.17;13.63;;;21.30;93.70;;;;;;4952505;28;20023;-64
2023/05/28 03:53:31;;;;;;;16.77;13.07;;;21.40;93.90;;;;;;4951326;28;20102;-64
2023/05/28 03:55:56;;;;;;;17.13;13.20;;;21.30;93.80;;;;;;4952563;28;20480;-64
2023/05/28 03:58:24;;;;;;;16.48;12.98;;;21.40;93.80;;;;;;4949762;28;20031;-64
2023/05/28 04:00:50;;;;;;;17.00;13.32;;;21.30;93.60;;;;;;4950608;29;20051;-64
2023/05/28 04:03:17;;;;;;;18.15;13.50;;;21.30;93.60;;;;;;4951253;28;20057;-64
2023/05/28 04:05:45;;;;;;;17.80;12.43;;;21.30;93.80;;;;;;4951432;28;20523;-64
2023/05/28 04:08:11;;;;;;;17.17;12.90;;;21.40;94.10;;;;;;4959760;28;20079;-64
2023/05/28 04:10:37;;;;;;;18.10;13.47;;;21.40;94.40;;;;;;4951461;29;20042;-63
2023/05/28 04:13:03;;;;;;;15.57;13.25;;;21.40;94.50;;;;;;4951245;28;20031;-63
2023/05/28 04:15:30;;;;;;;17.13;12.68;;;21.30;94.80;;;;;;4954328;28;20031;-63
2023/05/28 04:17:56;;;;;;;16.65;13.50;;;21.30;94.80;;;;;;4969217;28;20031;-63
2023/05/28 04:20:21;;;;;;;16.20;12.50;;;21.30;94.50;;;;;;4956312;28;20392;-63
2023/05/28 04:22:47;;;;;;;14.80;12.18;;;21.30;94.60;;;;;;4954937;28;20042;-64
2023/05/28 04:25:13;;;;;;;17.83;11.47;;;21.30;94.30;;;;;;4954492;29;20388;-64
2023/05/28 04:27:40;;;;;;;16.33;12.70;;;21.30;94.30;;;;;;4954343;28;20031;-63
2023/05/28 04:30:08;;;;;;;;;;;21.30;94.30;;;;;;4954847;29;20058;-63
2023/05/28 04:32:34;;;;;;;18.17;11.63;;;21.30;91.90;;;;;;4954479;28;20349;-64
2023/05/28 04:35:03;;;;;;;14.68;12.20;;;21.40;94.00;;;;;;4954392;29;20055;-63
2023/05/28 04:37:29;;;;;;;18.52;13.25;;;21.30;94.20;;;;;;4938106;28;20031;-64
2023/05/28 04:39:56;;;;;;;13.70;11.85;;;21.30;94.40;;;;;;4954352;28;20027;-64
2023/05/28 04:42:23;;;;;;;15.07;11.40;;;21.30;94.50;;;;;;4954330;28;20035;-64
2023/05/28 04:44:49;;;;;;;16.95;12.45;;;21.20;94.40;;;;;;4954350;28;20038;-63
2023/05/28 04:47:15;;;;;;;15.57;10.52;;;21.20;94.10;;;;;;4953622;29;20465;-63
2023/05/28 04:49:41;;;;;;;16.88;11.18;;;21.20;93.70;;;;;;4954503;29;20078;-63
2023/05/28 04:52:08;;;;;;;14.43;10.48;;;21.30;93.10;;;;;;4955537;28;20027;-64
2023/05/28 04:54:36;;;;;;;14.32;10.63;;;21.20;92.80;;;;;;4953976;29;20031;-63
2023/05/28 04:57:02;;;;;;;13.40;10.55;;;21.30;92.80;;;;;;4952701;28;20032;-64
2023/05/28 04:59:28;;;;;;;13.23;10.75;;;21.20;92.60;;;;;;4953921;29;20054;-63
2023/05/28 05:01:54;;;;;;;13.00;10.13;;;21.20;91.20;;;;;;4954054;29;20032;-63
2023/05/28 05:04:20;;;;;;;15.70;10.30;;;21.20;90.70;;;;;;4954306;29;20381;-63
2023/05/28 05:06:46;;;;;;;13.77;11.00;;;21.20;90.60;;;;;;4966599;28;20085;-63
2023/05/28 05:09:12;;;;;;;14.65;11.18;;;21.30;90.90;;;;;;4964402;28;20053;-64
2023/05/28 05:11:37;;;;;;;14.50;10.45;;;21.30;90.10;;;;;;4955226;28;20027;-64
2023/05/28 05:14:05;;;;;;;14.70;10.88;;;21.30;90.30;;;;;;4954057;28;20369;-63
2023/05/28 05:16:31;;;;;;;15.10;10.45;;;21.40;90.00;;;;;;4954238;29;20038;-63
2023/05/28 05:18:57;;;;;;;17.40;11.18;;;21.40;89.50;;;;;;4953263;28;20538;-64
2023/05/28 05:21:23;;;;;;;13.82;10.48;;;21.30;88.60;;;;;;4955408;28;20035;-63
2023/05/28 05:23:49;;;;;;;13.35;10.82;;;21.40;86.70;;;;;;4954057;29;20130;-63
2023/05/28 05:26:17;;;;;;;14.13;10.00;;;21.40;86.70;;;;;;4949417;28;20028;-63
2023/05/28 05:28:44;;;;;;;13.88;11.05;;;21.40;87.00;;;;;;4964540;28;20024;-64
2023/05/28 05:31:13;;;;;;;12.50;11.20;;;21.40;87.20;;;;;;4953116;28;20034;-64
2023/05/28 05:33:43;;;;;;;12.85;10.45;;;21.50;87.10;;;;;;4955766;28;20027;-64
2023/05/28 05:36:28;;;;;;;14.55;11.77;;;21.50;88.00;;;;;;4955041;28;20456;-64
2023/05/28 05:39:14;;;;;;;16.67;12.27;;;21.50;88.00;;;;;;4954705;29;20544;-63
2023/05/28 05:41:59;;;;;;;15.20;11.70;;;21.60;88.00;;;;;;4943457;29;20039;-63
2023/05/28 05:44:29;;;;;;;19.35;12.30;;;21.70;88.80;;;;;;4954513;28;20036;-62
2023/05/28 05:46:55;;;;;;;15.82;12.02;;;21.70;88.50;;;;;;4953044;28;20113;-63
2023/05/28 05:49:21;;;;;;;14.93;10.88;;;21.80;88.70;;;;;;4953214;28;20039;-63
2023/05/28 05:51:46;;;;;;;19.63;12.60;;;21.90;86.90;;;;;;4946504;28;20034;-62
2023/05/28 05:54:12;;;;;;;17.70;11.80;;;22.00;85.00;;;;;;4953230;28;20028;-61
2023/05/28 05:56:39;;;;;;;14.98;12.43;;;22.10;84.70;;;;;;4953359;28;20035;-62
2023/05/28 05:59:05;;;;;;;15.93;11.93;;;22.10;85.40;;;;;;4953118;28;20051;-63
2023/05/28 06:01:31;;;;;;;15.75;12.18;;;22.20;86.30;;;;;;4945773;29;20432;-63
2023/05/28 06:03:57;;;;;;;13.53;10.43;;;22.20;88.10;;;;;;4965591;28;20035;-62
2023/05/28 06:06:44;;;;;;;16.10;11.63;;;22.30;86.70;;;;;;4943233;28;20708;-62
2023/05/28 06:12:04;;;;;;;14.48;11.40;;;22.30;86.70;;;;;;4923305;29;20119;-57
2023/05/28 06:14:30;;;;;;;14.88;10.90;;;22.30;86.90;;;;;;4963301;28;20032;-54
2023/05/28 06:16:56;;;;;;;15.05;11.02;;;22.30;86.50;;;;;;4932434;29;20034;-52
2023/05/28 06:19:22;;;;;;;12.60;10.70;;;22.30;85.80;;;;;;4964712;28;20028;-56
2023/05/28 06:21:48;;;;;;;15.52;10.70;;;22.30;86.20;;;;;;4913982;29;20074;-54
2023/05/28 06:24:15;;;;;;;;;;;22.30;84.60;;;;;;4930688;29;20063;-57
2023/05/28 06:26:44;;;;;;;14.75;10.70;;;22.30;81.50;;;;;;4912194;29;19919;-55
2023/05/28 06:29:10;;;;;;;19.38;11.07;;;22.30;83.60;;;;;;4946149;28;20032;-52
2023/05/28 06:31:36;;;;;;;12.73;10.98;;;22.30;83.90;;;;;;4910743;29;20032;-51
2023/05/28 06:34:03;;;;;;;16.80;10.18;;;22.30;83.10;;;;;;4946477;29;20032;-52
2023/05/28 06:36:29;;;;;;;12.32;10.57;;;22.30;81.30;;;;;;4908313;29;20071;-49
2023/05/28 06:38:55;;;;;;;17.02;10.60;;;22.30;82.00;;;;;;4914524;29;20477;-50
2023/05/28 06:41:22;;;;;;;13.82;10.18;;;22.40;80.90;;;;;;4942825;29;20036;-49
2023/05/28 06:43:50;;;;;;;17.80;10.60;;;22.40;80.80;;;;;;4913916;29;20043;-49
2023/05/28 06:46:36;;;;;;;15.00;9.95;;;22.50;79.90;;;;;;4913547;29;20450;-48
2023/05/28 06:49:02;;;;;;;13.05;9.43;;;22.50;78.50;;;;;;4914462;29;20078;-49
2023/05/28 06:51:28;;;;;;;15.13;10.37;;;22.60;77.90;;;;;;4941701;29;20032;-51
2023/05/28 06:53:54;;;;;;;16.10;10.93;;;22.60;79.20;;;;;;4946152;29;20035;-49
2023/05/28 06:56:25;;;;;;;15.20;11.05;;;22.70;78.10;;;;;;4929413;29;20334;-49
2023/05/28 06:59:11;;;;;;;14.93;10.20;;;22.70;78.10;;;;;;4892900;29;20043;-48
2023/05/28 07:01:47;;;;;;;16.63;10.50;;;22.70;76.80;;;;;;4926710;29;20055;-48
2023/05/28 07:04:28;;;;;;;14.93;10.80;;;22.70;76.30;;;;;;4913868;29;20024;-49
2023/05/28 07:07:02;;;;;;;17.33;11.25;;;22.70;76.60;;;;;;4916373;29;20408;-50
2023/05/28 07:09:30;;;;;;;16.15;10.50;;;22.80;77.40;;;;;;4915540;29;20024;-51
2023/05/28 07:11:56;;;;;;;13.88;11.45;;;22.80;77.30;;;;;;4912381;29;20039;-49
2023/05/28 07:14:23;;;;;;;14.90;11.57;;;22.80;77.60;;;;;;4914335;29;20035;-50
2023/05/28 07:16:49;;;;;;;14.50;10.65;;;22.90;78.30;;;;;;4913881;29;20512;-49
2023/05/28 07:19:15;;;;;;;14.87;10.07;;;22.90;78.20;;;;;;4913955;29;20039;-49
2023/05/28 07:21:41;;;;;;;14.57;11.45;;;22.90;77.00;;;;;;4937778;29;20039;-48
2023/05/28 07:24:07;;;;;;;17.23;11.30;;;23.00;77.40;;;;;;4916850;29;20489;-48
2023/05/28 07:26:34;;;;;;;13.88;10.60;;;23.00;78.00;;;;;;4916783;29;20123;-48
2023/05/28 07:29:00;;;;;;;14.87;10.67;;;23.10;78.90;;;;;;4913710;29;20119;-49
2023/05/28 07:31:28;;;;;;;17.95;11.57;;;23.10;78.30;;;;;;4914755;29;20509;-49
2023/05/28 07:33:54;;;;;;;12.43;10.90;;;23.20;78.20;;;;;;4913520;29;20124;-49
2023/05/28 07:36:22;;;;;;;13.05;9.10;;;23.20;75.40;;;;;;4914042;29;20509;-48
2023/05/28 07:38:47;;;;;;;12.70;8.53;;;23.30;73.10;;;;;;4913932;29;20135;-48
2023/05/28 07:41:13;;;;;;;14.43;9.13;;;23.40;72.50;;;;;;4914293;29;20154;-54
2023/05/28 07:43:50;;;;;;;14.98;9.93;;;23.40;73.90;;;;;;4916400;29;20409;-52
2023/05/28 07:46:21;;;;;;;11.98;9.48;;;23.50;71.80;;;;;;4919615;29;20028;-51
2023/05/28 07:48:50;;;;;;;16.13;8.73;;;23.50;71.70;;;;;;4921591;29;20056;-51
2023/05/28 07:51:28;;;;;;;12.75;8.88;;;23.50;70.40;;;;;;4923423;29;20054;-50
2023/05/28 07:54:06;;;;;;;11.68;8.65;;;23.60;69.50;;;;;;4912666;29;20115;-50
2023/05/28 07:56:33;;;;;;;8.93;7.90;;;23.70;69.10;;;;;;4917034;29;20127;-52
2023/05/28 07:58:59;;;;;;;13.45;9.27;;;23.70;68.40;;;;;;4917309;29;20028;-51
2023/05/28 08:01:25;;;;;;;11.33;9.27;;;23.80;68.50;;;;;;4917478;29;20119;-54
2023/05/28 08:03:53;;;;;;;11.83;8.33;;;23.80;69.90;;;;;;4918629;29;20520;-49
2023/05/28 08:06:22;;;;;;;13.40;7.95;;;23.90;67.50;;;;;;4947049;29;20575;-50
2023/05/28 08:08:48;;;;;;;10.57;9.33;;;23.90;67.70;;;;;;4916783;29;20116;-50
2023/05/28 08:11:14;;;;;;;11.67;7.87;;;23.90;67.80;;;;;;4927498;29;20042;-55
2023/05/28 08:13:41;;;;;;;9.45;7.60;;;23.90;66.70;;;;;;4933354;29;20024;-49
2023/05/28 08:16:12;;;;;;;10.38;8.25;;;23.90;66.70;;;;;;4917423;29;20042;-49
2023/05/28 08:18:58;;;;;;;18.17;8.23;;;23.90;67.50;;;;;;4924633;29;20066;-50
2023/05/28 08:21:24;;;;;;;12.13;7.80;;;23.90;67.90;;;;;;4931912;29;20389;-48
2023/05/28 08:23:50;;;;;;;10.70;8.27;;;24.00;67.80;;;;;;4932377;29;20539;-49
2023/05/28 08:26:16;;;;;;;;;;;24.10;66.80;;;;;;4948473;29;20491;-49
2023/05/28 08:28:42;;;;;;;13.25;8.57;;;24.10;66.50;;;;;;4931562;29;19994;-48
2023/05/28 08:31:08;;;;;;;11.13;8.43;;;24.10;67.10;;;;;;4947939;29;20028;-49
2023/05/28 08:33:48;;;;;;;10.52;7.97;;;24.20;67.00;;;;;;4947499;29;20035;-50
2023/05/28 08:36:14;;;;;;;12.47;8.20;;;24.30;66.90;;;;;;4948653;29;20036;-52
2023/05/28 08:38:40;;;;;;;11.18;7.75;;;24.30;66.30;;;;;;4915382;29;20051;-49
2023/05/28 08:41:07;;;;;;;10.67;8.30;;;24.40;65.30;;;;;;4948594;28;20497;-54
2023/05/28 08:43:34;;;;;;;11.65;7.80;;;24.40;65.20;;;;;;4918217;29;20055;-52
2023/05/28 08:46:00;;;;;;;12.57;7.53;;;24.50;64.60;;;;;;4948583;29;20489;-49
2023/05/28 08:48:35;;;;;;;8.60;6.85;;;24.50;63.90;;;;;;4948127;29;20036;-53
2023/05/28 08:51:02;;;;;;;10.10;7.80;;;24.50;64.50;;;;;;4916504;29;20497;-50
2023/05/28 08:53:59;;;;;;;15.60;7.80;;;24.60;64.40;;;;;;4948261;29;20024;-50
2023/05/28 08:56:28;;;;;;;10.73;7.53;;;24.70;62.70;;;;;;4915928;29;20044;-51
2023/05/28 08:58:55;;;;;;;13.00;7.60;;;24.70;63.20;;;;;;4916272;29;20039;-49
2023/05/28 09:01:21;;;;;;;17.30;9.52;;;24.70;63.60;;;;;;4915955;29;20036;-49
2023/05/28 09:03:57;;;;;;;9.38;8.13;;;24.80;64.70;;;;;;4916476;29;20501;-49
2023/05/28 09:06:33;;;;;;;14.23;8.40;;;24.90;63.70;;;;;;4948072;29;20066;-50
2023/05/28 09:09:00;;;;;;;12.18;7.50;;;24.90;62.70;;;;;;4947852;29;20035;-50
2023/05/28 09:12:02;;;;;;;10.82;7.47;;;25.00;62.60;;;;;;4926827;29;20046;-53
2023/05/28 09:14:28;;;;;;;10.18;7.70;;;25.00;62.00;;;;;;4947933;29;20404;-52
2023/05/28 09:16:55;;;;;;;10.48;7.32;;;25.10;61.50;;;;;;4916170;29;20028;-49
2023/05/28 09:19:25;;;;;;;14.02;7.97;;;25.10;63.60;;;;;;4947617;29;20032;-49
2023/05/28 09:22:01;;;;;;;13.32;8.40;;;25.20;62.80;;;;;;4947736;29;20572;-53
2023/05/28 09:24:52;;;;;;;13.95;8.50;;;25.20;61.40;;;;;;4929689;29;20082;-51
2023/05/28 09:27:36;;;;;;;10.25;6.72;;;25.30;62.20;;;;;;4915747;29;20036;-49
2023/05/28 09:30:07;;;;;;;9.63;7.30;;;25.30;61.00;;;;;;4917020;29;20028;-49
2023/05/28 09:32:36;;;;;;;10.35;7.75;;;25.30;61.00;;;;;;4916989;29;20489;-49
2023/05/28 09:35:06;;;;;;;11.32;7.53;;;25.30;61.20;;;;;;4947563;29;20046;-54
2023/05/28 09:37:33;;;;;;;11.95;7.80;;;25.40;61.10;;;;;;4916893;29;20032;-49
2023/05/28 09:39:59;;;;;;;;;;;25.50;61.10;;;;;;4917384;29;20405;-51
2023/05/28 09:42:25;;;;;;;13.25;8.45;;;25.60;61.90;;;;;;4916845;29;19915;-51
2023/05/28 09:44:51;;;;;;;8.83;7.80;;;25.70;61.80;;;;;;4916801;29;20123;-49
2023/05/28 09:47:18;;;;;;;10.33;8.73;;;25.90;61.20;;;;;;4947151;29;20367;-49
2023/05/28 09:49:46;;;;;;;11.02;8.00;;;26.00;59.90;;;;;;4916762;29;20024;-50
2023/05/28 09:52:20;;;;;;;17.45;9.57;;;26.20;60.80;;;;;;4916708;29;20032;-49
2023/05/28 09:54:51;;;;;;;10.43;7.68;;;26.40;58.60;;;;;;4931417;29;20024;-50
2023/05/28 09:57:26;;;;;;;13.85;7.32;;;26.50;56.80;;;;;;4916360;29;20043;-50
2023/05/28 09:59:55;;;;;;;10.60;8.10;;;26.60;58.00;;;;;;4916726;29;20046;-49
2023/05/28 10:02:28;;;;;;;11.77;7.95;;;26.60;57.50;;;;;;4916493;29;20115;-49
2023/05/28 10:04:56;;;;;;;10.45;8.38;;;26.60;58.60;;;;;;4916621;29;20404;-49
2023/05/28 10:07:25;;;;;;;12.48;8.27;;;26.60;58.40;;;;;;4916216;29;20036;-50
2023/05/28 10:09:53;;;;;;;10.98;8.57;;;26.70;59.70;;;;;;4916176;29;20100;-52
2023/05/28 10:12:23;;;;;;;16.70;9.27;;;26.80;59.80;;;;;;4915774;29;20024;-51
2023/05/28 10:14:50;;;;;;;13.35;8.40;;;26.70;59.40;;;;;;4931000;29;20371;-54
2023/05/28 10:17:17;;;;;;;14.30;7.82;;;26.70;58.80;;;;;;4916139;29;20032;-52
2023/05/28 10:19:45;;;;;;;;;;;26.70;58.10;;;;;;4916694;29;20107;-51
2023/05/28 10:22:12;;;;;;;10.90;8.30;;;26.70;58.30;;;;;;4916221;29;19965;-50
2023/05/28 10:24:38;;;;;;;11.23;7.65;;;26.70;59.50;;;;;;4916465;29;20043;-52
2023/05/28 10:27:07;;;;;;;12.05;8.30;;;26.80;59.40;;;;;;4916003;29;20032;-48
2023/05/28 10:29:44;;;;;;;14.10;7.53;;;26.80;59.40;;;;;;4916063;29;20035;-50
2023/05/28 10:32:13;;;;;;;12.40;6.23;;;26.80;57.30;;;;;;4916126;29;20028;-51
2023/05/28 10:34:39;;;;;;;8.95;6.00;;;26.80;57.00;;;;;;4915982;29;20761;-53
2023/05/28 10:37:08;;;;;;;10.63;6.87;;;26.70;56.80;;;;;;4914517;29;20043;-50
2023/05/28 10:39:47;;;;;;;10.25;5.75;;;26.80;56.20;;;;;;4914707;29;20493;-53
2023/05/28 10:42:18;;;;;;;11.48;6.53;;;26.90;57.50;;;;;;4914805;29;20036;-49
2023/05/28 10:45:07;;;;;;;7.72;5.22;;;27.10;57.20;;;;;;4914736;29;20042;-51
2023/05/28 10:47:37;;;;;;;7.40;5.80;;;27.30;54.50;;;;;;4915687;29;20146;-53
2023/05/28 10:50:09;;;;;;;10.82;5.85;;;27.30;55.70;;;;;;4915753;29;20039;-49
2023/05/28 10:52:36;;;;;;;10.23;6.68;;;27.50;55.80;;;;;;4914382;29;20028;-51
2023/05/28 10:55:04;;;;;;;7.25;5.13;;;27.60;54.90;;;;;;4914405;29;20036;-50
2023/05/28 10:57:44;;;;;;;9.00;5.72;;;27.60;55.70;;;;;;4914831;29;20153;-51
2023/05/28 11:00:13;;;;;;;8.32;4.95;;;27.80;52.50;;;;;;4915361;29;20051;-49
2023/05/28 11:02:44;;;;;;;6.82;5.22;;;27.80;54.60;;;;;;4914585;29;20039;-49
2023/05/28 11:05:10;;;;;;;7.72;4.70;;;27.90;54.30;;;;;;4918929;29;20082;-49
2023/05/28 11:07:38;;;;;;;8.13;5.85;;;27.90;54.50;;;;;;4921143;29;20063;-49
2023/05/28 11:10:07;;;;;;;7.25;6.05;;;28.00;53.20;;;;;;4944316;29;20425;-54
2023/05/28 11:12:37;;;;;;;6.93;5.25;;;28.10;54.60;;;;;;4929707;29;20035;-55
2023/05/28 11:15:05;;;;;;;9.38;5.53;;;28.20;53.20;;;;;;4915305;29;20031;-55
2023/05/28 11:17:39;;;;;;;8.35;5.72;;;28.20;53.50;;;;;;4913228;29;20039;-56
2023/05/28 11:20:14;;;;;;;7.90;6.25;;;28.40;52.80;;;;;;4914977;29;20036;-53
2023/05/28 11:22:40;;;;;;;8.27;6.30;;;28.40;53.30;;;;;;4915566;29;20075;-52
2023/05/28 11:25:09;;;;;;;6.50;5.37;;;28.40;52.90;;;;;;4919063;29;20047;-52
2023/05/28 11:27:37;;;;;;;7.78;5.97;;;28.40;51.40;;;;;;4918394;29;20393;-54
2023/05/28 11:30:09;;;;;;;9.40;5.20;;;28.50;52.70;;;;;;4918577;29;20062;-54
2023/05/28 11:32:35;;;;;;;8.38;6.15;;;28.60;52.40;;;;;;4924754;29;20553;-52
2023/05/28 11:35:01;;;;;;;9.30;6.13;;;28.70;52.00;;;;;;4914301;29;20035;-57
2023/05/28 11:37:33;;;;;;;7.65;5.68;;;28.70;52.40;;;;;;4900574;29;20051;-54
2023/05/28 11:40:00;;;;;;;8.63;6.45;;;28.80;52.60;;;;;;4918303;29;20087;-52
2023/05/28 11:42:30;;;;;;;12.18;5.60;;;28.80;52.10;;;;;;4916873;29;20028;-50
2023/05/28 11:44:58;;;;;;;9.73;5.60;;;28.90;51.00;;;;;;4914617;29;20126;-51
2023/05/28 11:47:26;;;;;;;7.78;5.55;;;28.80;50.50;;;;;;4913524;29;20125;-51
2023/05/28 11:49:52;;;;;;;7.57;5.28;;;28.90;50.50;;;;;;4916289;29;20020;-47
2023/05/28 11:52:24;;;;;;;10.57;6.18;;;28.90;50.40;;;;;;4918328;29;20024;-47
2023/05/28 11:54:57;;;;;;;7.63;5.75;;;29.00;51.30;;;;;;4948606;29;20119;-47
2023/05/28 11:57:25;;;;;;;9.52;6.00;;;28.90;50.10;;;;;;4918449;29;20032;-49
2023/05/28 12:00:03;;;;;;;7.78;6.50;;;29.00;50.70;;;;;;4918124;29;20107;-49
2023/05/28 12:02:49;;;;;;;7.30;6.10;;;29.10;51.40;;;;;;4909012;29;20071;-50
2023/05/28 12:05:16;;;;;;;12.32;6.75;;;29.00;51.30;;;;;;4917038;29;20508;-47
2023/05/28 12:07:47;;;;;;;9.85;6.20;;;29.10;51.80;;;;;;4917736;29;20040;-49
2023/05/28 12:10:26;;;;;;;8.55;6.85;;;29.20;53.10;;;;;;4945760;23;20839;-66
2023/05/28 12:12:56;;;;;;;11.20;6.45;;;29.40;51.70;;;;;;4945056;28;20034;-63
2023/05/28 12:15:29;;;;;;;7.93;6.40;;;29.40;50.20;;;;;;4949072;29;20035;-63
2023/05/28 12:18:00;;;;;;;11.60;6.38;;;29.50;52.80;;;;;;4966426;28;20034;-63
2023/05/28 12:20:30;;;;;;;8.57;6.65;;;29.60;52.60;;;;;;4944510;29;20024;-61
2023/05/28 12:23:00;;;;;;;8.95;6.07;;;29.70;51.90;;;;;;4943463;29;20083;-64
2023/05/28 12:25:26;;;;;;;10.10;6.57;;;29.80;52.10;;;;;;4952419;29;20562;-64
2023/05/28 12:27:52;;;;;;;7.87;6.57;;;29.80;50.90;;;;;;4954526;28;20115;-63
2023/05/28 12:30:18;;;;;;;7.63;5.50;;;29.90;50.50;;;;;;4982490;28;20069;-64
2023/05/28 12:32:44;;;;;;;8.87;5.70;;;29.80;50.70;;;;;;4946347;29;20279;-63
2023/05/28 12:35:09;;;;;;;10.60;6.00;;;29.90;50.10;;;;;;4949427;28;20329;-65
2023/05/28 12:37:35;;;;;;;8.10;5.67;;;29.90;50.30;;;;;;4940239;28;20035;-63
2023/05/28 12:40:01;;;;;;;7.47;5.23;;;30.00;49.00;;;;;;4938067;29;20074;-63
2023/05/28 12:42:27;;;;;;;9.13;5.38;;;30.10;50.70;;;;;;4944164;29;20066;-63
2023/05/28 12:44:52;;;;;;;10.60;5.10;;;30.20;49.80;;;;;;4947643;29;20491;-63